Time;durP1;ratioP1;P1;durP2;ratioP2;P2;SDS_P1;SDS_P2;PMS_P1;PMS_P2;Temp;Humidity;BMP_temperature;BMP_pressure;BME280_temperature;BME280_humidity;BME280_pressure;Samples;Min_cycle;Max_cycle;Signal;HPM_P1;HPM_P2
2023/03/18 00:00:00;;;;;;;15.90;12.65;;;11.70;99.90;;;;;;4993066;28;20428;-76
2023/03/18 00:02:26;;;;;;;19.15;13.65;;;11.60;99.90;;;;;;5005765;28;21198;-75
2023/03/18 00:04:51;;;;;;;16.38;13.30;;;11.70;99.90;;;;;;5003614;28;20830;-76
2023/03/18 00:07:17;;;;;;;17.73;12.57;;;11.70;99.90;;;;;;5005652;28;20508;-76
2023/03/18 00:09:43;;;;;;;17.48;13.68;;;11.60;99.90;;;;;;5003812;28;20987;-76
2023/03/18 00:12:09;;;;;;;15.93;12.57;;;11.60;99.90;;;;;;5005694;28;20432;-76
2023/03/18 00:14:37;;;;;;;17.93;12.53;;;11.60;99.90;;;;;;4993604;28;20959;-76
2023/03/18 00:17:04;;;;;;;19.70;14.40;;;11.60;99.90;;;;;;5005566;28;20448;-77
2023/03/18 00:19:32;;;;;;;21.83;15.63;;;11.60;99.90;;;;;;4991035;28;20443;-76
2023/03/18 00:21:58;;;;;;;21.70;14.88;;;11.50;99.90;;;;;;5004773;28;20428;-76
2023/03/18 00:24:26;;;;;;;20.85;15.73;;;11.60;99.90;;;;;;5006467;28;20436;-76
2023/03/18 00:26:52;;;;;;;17.65;14.10;;;11.60;99.90;;;;;;5005544;28;20931;-77
2023/03/18 00:29:18;;;;;;;15.32;13.15;;;11.50;99.90;;;;;;5005531;28;20435;-78
2023/03/18 00:31:45;;;;;;;19.70;14.65;;;11.50;99.90;;;;;;5004982;28;20446;-76
2023/03/18 00:34:11;;;;;;;20.42;14.40;;;11.50;99.90;;;;;;4989194;28;20435;-77
2023/03/18 00:36:38;;;;;;;18.95;14.35;;;11.50;99.90;;;;;;4994200;28;20507;-76
2023/03/18 00:39:06;;;;;;;19.02;13.82;;;11.50;99.90;;;;;;5004602;28;20424;-75
2023/03/18 00:41:35;;;;;;;23.27;15.80;;;11.40;99.90;;;;;;5005144;28;20842;-75
2023/03/18 00:44:00;;;;;;;18.13;15.68;;;11.40;99.90;;;;;;4990343;28;20933;-76
2023/03/18 00:46:35;;;;;;;17.90;14.83;;;11.40;99.90;;;;;;4987972;28;20493;-76
2023/03/18 00:49:05;;;;;;;25.48;16.25;;;11.40;99.90;;;;;;4998334;28;20483;-77
2023/03/18 00:51:33;;;;;;;20.25;16.83;;;11.40;99.90;;;;;;5006383;28;20432;-76
2023/03/18 00:54:01;;;;;;;20.08;15.48;;;11.30;99.90;;;;;;5004483;28;20783;-75
2023/03/18 00:56:29;;;;;;;19.13;17.08;;;11.30;99.90;;;;;;5001247;28;20464;-76
2023/03/18 00:58:56;;;;;;;25.73;18.77;;;11.30;99.90;;;;;;4999846;28;20432;-75
2023/03/18 01:01:22;;;;;;;21.17;18.17;;;11.30;99.90;;;;;;5002104;28;20425;-77
2023/03/18 01:03:49;;;;;;;24.00;18.63;;;11.20;99.90;;;;;;5002553;28;20428;-78
2023/03/18 01:06:21;;;;;;;22.10;19.77;;;11.30;99.90;;;;;;4983943;28;20496;-76
2023/03/18 01:08:48;;;;;;;24.30;20.90;;;11.30;99.90;;;;;;5002854;28;20439;-76
2023/03/18 01:11:14;;;;;;;24.17;21.45;;;11.10;99.90;;;;;;4989355;28;20519;-77
2023/03/18 01:13:40;;;;;;;23.83;21.30;;;11.10;99.90;;;;;;4999491;28;20528;-76
2023/03/18 01:16:08;;;;;;;25.65;22.17;;;11.00;99.90;;;;;;5006269;28;20420;-76
2023/03/18 01:18:35;;;;;;;23.23;20.13;;;10.90;99.90;;;;;;5001803;28;20429;-77
2023/03/18 01:21:01;;;;;;;23.35;20.65;;;10.90;99.90;;;;;;5004621;28;21005;-77
2023/03/18 01:23:29;;;;;;;23.73;21.13;;;10.80;99.90;;;;;;5000959;28;20432;-76
2023/03/18 01:25:54;;;;;;;25.67;22.17;;;10.60;99.90;;;;;;4999219;28;20487;-77
2023/03/18 01:28:21;;;;;;;25.87;21.50;;;10.60;99.90;;;;;;4998657;28;21277;-76
2023/03/18 01:30:47;;;;;;;27.00;23.75;;;10.50;99.90;;;;;;5004036;28;20463;-76
2023/03/18 01:33:14;;;;;;;27.98;23.90;;;10.50;99.90;;;;;;4998200;28;20528;-77
2023/03/18 01:35:40;;;;;;;30.50;24.40;;;10.40;99.90;;;;;;4999530;28;20528;-77
2023/03/18 01:38:07;;;;;;;27.10;24.02;;;10.30;99.90;;;;;;5005791;28;20432;-76
2023/03/18 01:40:36;;;;;;;25.30;22.33;;;10.30;99.90;;;;;;4983620;28;20903;-77
2023/03/18 01:43:27;;;;;;;26.38;22.98;;;10.30;99.90;;;;;;4995205;28;20882;-77
2023/03/18 01:45:57;;;;;;;26.20;23.48;;;10.30;99.90;;;;;;4995273;28;20436;-76
2023/03/18 01:48:26;;;;;;;27.23;24.25;;;10.30;99.90;;;;;;5005873;28;20439;-76
2023/03/18 01:51:04;;;;;;;26.30;23.40;;;10.20;99.90;;;;;;5000935;28;20424;-76
2023/03/18 01:53:41;;;;;;;28.98;24.80;;;10.20;99.90;;;;;;4995273;28;20805;-76
2023/03/18 01:56:07;;;;;;;27.50;24.67;;;10.20;99.90;;;;;;4987576;28;20426;-76
2023/03/18 01:58:38;;;;;;;27.95;24.08;;;10.10;99.90;;;;;;4997988;28;21374;-76
2023/03/18 02:01:11;;;;;;;30.75;25.05;;;10.10;99.90;;;;;;5000674;28;20441;-76
2023/03/18 02:03:38;;;;;;;32.53;26.75;;;10.00;99.90;;;;;;4994147;28;20428;-76
2023/03/18 02:06:04;;;;;;;28.83;25.75;;;10.00;99.90;;;;;;5003533;28;20479;-76
2023/03/18 02:08:30;;;;;;;29.95;25.73;;;10.00;99.90;;;;;;5006601;28;20887;-76
2023/03/18 02:10:55;;;;;;;28.95;25.80;;;10.10;99.90;;;;;;5001763;28;20482;-76
2023/03/18 02:13:21;;;;;;;28.55;25.48;;;10.00;99.90;;;;;;5000130;28;20522;-77
2023/03/18 02:15:55;;;;;;;27.88;24.88;;;10.00;99.90;;;;;;5004274;28;20799;-77
2023/03/18 02:18:33;;;;;;;28.05;25.30;;;10.00;99.90;;;;;;5005817;28;20487;-77
2023/03/18 02:21:23;;;;;;;28.40;24.55;;;9.90;99.90;;;;;;5000592;28;20524;-75
2023/03/18 02:24:28;;;;;;;29.10;25.48;;;9.80;99.90;;;;;;5003650;28;20503;-77
2023/03/18 02:27:13;;;;;;;28.98;25.92;;;9.70;99.90;;;;;;4984833;28;20982;-77
2023/03/18 02:29:41;;;;;;;30.75;27.50;;;9.60;99.90;;;;;;5004798;28;20779;-76
2023/03/18 02:32:07;;;;;;;29.27;26.25;;;9.60;99.90;;;;;;4999304;28;20434;-76
2023/03/18 02:34:35;;;;;;;30.13;26.92;;;9.60;99.90;;;;;;4984696;28;20478;-77
2023/03/18 02:37:01;;;;;;;30.60;27.33;;;9.50;99.90;;;;;;4995037;28;20476;-76
2023/03/18 02:39:28;;;;;;;28.13;25.10;;;9.50;99.90;;;;;;5000976;28;20435;-76
2023/03/18 02:41:54;;;;;;;31.23;27.52;;;9.50;99.90;;;;;;5001409;28;20862;-76
2023/03/18 02:44:21;;;;;;;30.13;27.10;;;9.50;99.90;;;;;;4999345;28;20516;-77
2023/03/18 02:47:01;;;;;;;33.75;28.90;;;9.60;99.90;;;;;;5001036;28;20450;-76
2023/03/18 02:49:27;;;;;;;29.33;26.20;;;9.50;99.90;;;;;;5001115;28;20940;-77
2023/03/18 02:51:54;;;;;;;30.53;27.23;;;9.40;99.90;;;;;;5000938;28;20427;-76
2023/03/18 02:54:23;;;;;;;32.97;28.27;;;9.40;99.90;;;;;;5000175;28;20517;-77
2023/03/18 02:56:50;;;;;;;32.33;27.90;;;9.40;99.90;;;;;;4997344;28;20475;-78
2023/03/18 02:59:16;;;;;;;30.02;26.98;;;9.30;99.90;;;;;;5000811;28;20420;-76
2023/03/18 03:01:44;;;;;;;31.95;27.80;;;9.20;99.90;;;;;;4982697;28;20433;-76
2023/03/18 03:04:11;;;;;;;32.38;28.85;;;9.20;99.90;;;;;;4995326;28;20429;-76
2023/03/18 03:06:38;;;;;;;35.47;31.13;;;9.20;99.90;;;;;;5004062;28;21033;-76
2023/03/18 03:09:05;;;;;;;36.95;29.40;;;9.10;99.90;;;;;;5004345;28;20785;-76
2023/03/18 03:11:31;;;;;;;35.35;31.65;;;9.20;99.90;;;;;;5001756;28;20783;-76
2023/03/18 03:13:57;;;;;;;33.97;30.27;;;9.20;99.90;;;;;;4992243;28;20473;-75
2023/03/18 03:16:23;;;;;;;34.55;30.73;;;9.30;99.90;;;;;;5001796;28;20493;-75
2023/03/18 03:18:49;;;;;;;35.25;31.27;;;9.20;99.90;;;;;;4994843;28;20428;-78
2023/03/18 03:21:15;;;;;;;36.88;32.90;;;9.20;99.90;;;;;;5003906;28;20428;-75
2023/03/18 03:23:42;;;;;;;34.30;30.60;;;9.20;99.90;;;;;;4992431;28;20471;-78
2023/03/18 03:26:08;;;;;;;34.88;31.23;;;9.20;99.90;;;;;;5000924;28;21016;-76
2023/03/18 03:28:33;;;;;;;32.42;28.35;;;9.20;99.90;;;;;;5016971;28;20952;-76
2023/03/18 03:31:00;;;;;;;35.25;29.05;;;9.30;99.90;;;;;;5001147;28;20452;-76
2023/03/18 03:33:27;;;;;;;32.95;28.60;;;9.30;99.90;;;;;;5002445;28;20466;-76
2023/03/18 03:35:53;;;;;;;32.90;28.77;;;9.30;99.90;;;;;;4987463;28;20424;-75
2023/03/18 03:38:19;;;;;;;34.00;28.42;;;9.30;99.90;;;;;;5004870;28;20421;-76
2023/03/18 03:40:45;;;;;;;34.28;28.50;;;9.30;99.90;;;;;;5002192;28;20428;-76
2023/03/18 03:43:14;;;;;;;32.83;29.08;;;9.30;99.90;;;;;;5002328;28;20424;-76
2023/03/18 03:45:42;;;;;;;33.67;29.97;;;9.40;99.90;;;;;;4986952;28;20853;-76
2023/03/18 03:48:08;;;;;;;34.13;29.30;;;9.30;99.90;;;;;;5000996;28;20838;-77
2023/03/18 03:50:35;;;;;;;32.33;28.83;;;9.40;99.90;;;;;;4999710;28;20452;-76
2023/03/18 03:53:03;;;;;;;32.23;28.47;;;9.40;99.90;;;;;;5002230;28;20476;-76
2023/03/18 03:55:29;;;;;;;33.10;29.58;;;9.40;99.90;;;;;;4995586;28;20425;-76
2023/03/18 03:57:55;;;;;;;32.87;27.57;;;9.40;99.90;;;;;;5006430;28;20491;-77
2023/03/18 04:00:22;;;;;;;30.85;27.52;;;9.40;99.90;;;;;;5010468;28;20424;-76
2023/03/18 04:02:49;;;;;;;31.52;27.77;;;9.50;99.90;;;;;;4991035;28;20894;-77
2023/03/18 04:05:16;;;;;;;31.55;26.63;;;9.40;99.90;;;;;;5006220;28;20532;-75
2023/03/18 04:07:43;;;;;;;31.58;27.45;;;9.50;99.90;;;;;;5007418;28;20436;-76
2023/03/18 04:10:10;;;;;;;32.50;26.85;;;9.40;99.90;;;;;;5000026;28;20423;-75
2023/03/18 04:12:37;;;;;;;31.03;26.87;;;9.50;99.90;;;;;;5001882;28;20543;-75
2023/03/18 04:15:05;;;;;;;30.02;26.83;;;9.50;99.90;;;;;;5000084;28;20418;-78
2023/03/18 04:17:31;;;;;;;31.67;28.33;;;9.40;99.90;;;;;;5002111;28;20455;-74
2023/03/18 04:19:57;;;;;;;32.45;26.00;;;9.40;99.90;;;;;;5006609;28;20807;-75
2023/03/18 04:22:23;;;;;;;32.10;26.55;;;9.50;99.90;;;;;;5003829;28;20416;-76
2023/03/18 04:24:49;;;;;;;28.77;25.48;;;9.50;99.90;;;;;;4988224;28;20459;-77
2023/03/18 04:27:17;;;;;;;29.90;25.70;;;9.50;99.90;;;;;;4999520;28;20455;-75
2023/03/18 04:29:43;;;;;;;34.40;27.23;;;9.50;99.90;;;;;;4990789;28;20511;-75
2023/03/18 04:32:10;;;;;;;29.75;26.55;;;9.50;99.90;;;;;;5007773;28;20424;-77
2023/03/18 04:34:35;;;;;;;32.85;27.25;;;9.50;99.90;;;;;;5004327;28;20523;-75
2023/03/18 04:37:02;;;;;;;30.52;26.98;;;9.50;99.90;;;;;;5006785;28;20507;-76
2023/03/18 04:39:28;;;;;;;35.88;28.85;;;9.60;99.90;;;;;;5004121;28;20432;-75
2023/03/18 04:41:55;;;;;;;38.05;29.08;;;9.60;99.90;;;;;;5007002;28;20427;-76
2023/03/18 04:44:22;;;;;;;37.28;28.90;;;9.60;99.90;;;;;;5000680;28;20508;-76
2023/03/18 04:46:47;;;;;;;37.55;28.48;;;9.60;99.90;;;;;;4993743;28;20436;-76
2023/03/18 04:49:13;;;;;;;39.47;28.03;;;9.60;99.90;;;;;;5006406;28;20960;-76
2023/03/18 04:51:39;;;;;;;40.80;31.53;;;9.50;99.90;;;;;;5005240;28;20512;-76
2023/03/18 04:54:05;;;;;;;38.25;30.15;;;9.60;99.90;;;;;;5004582;28;20496;-77
2023/03/18 04:56:31;;;;;;;38.53;28.25;;;9.60;99.90;;;;;;5003773;28;20491;-76
2023/03/18 04:58:56;;;;;;;40.97;31.33;;;9.60;99.90;;;;;;4994228;28;20438;-76
2023/03/18 05:01:23;;;;;;;45.05;31.15;;;9.60;99.90;;;;;;5003348;28;20429;-76
2023/03/18 05:03:49;;;;;;;48.13;31.67;;;9.60;99.90;;;;;;5003500;28;20553;-77
2023/03/18 05:06:26;;;;;;;45.93;32.13;;;9.50;99.90;;;;;;5003401;28;20956;-75
2023/03/18 05:08:53;;;;;;;51.03;35.05;;;9.60;99.90;;;;;;5002677;28;20775;-76
2023/03/18 05:11:19;;;;;;;51.22;34.45;;;9.60;99.90;;;;;;4996582;28;20426;-76
2023/03/18 05:13:45;;;;;;;61.20;36.07;;;9.60;99.90;;;;;;5001097;28;20434;-76
2023/03/18 05:16:10;;;;;;;57.83;35.63;;;9.70;99.90;;;;;;5008053;28;20767;-75
2023/03/18 05:18:37;;;;;;;67.43;38.53;;;9.60;99.90;;;;;;4994574;28;20438;-77
2023/03/18 05:21:04;;;;;;;56.00;36.55;;;9.70;99.90;;;;;;5006091;28;20426;-75
2023/03/18 05:23:30;;;;;;;57.20;36.83;;;9.60;99.90;;;;;;5009164;28;20436;-74
2023/03/18 05:25:56;;;;;;;55.65;36.40;;;9.70;99.90;;;;;;5002869;28;20437;-75
2023/03/18 05:28:22;;;;;;;58.58;36.88;;;9.60;99.90;;;;;;5002772;28;20441;-75
2023/03/18 05:30:47;;;;;;;61.47;39.83;;;9.60;99.90;;;;;;5008326;28;20427;-76
2023/03/18 05:33:13;;;;;;;51.67;36.28;;;9.70;99.90;;;;;;5005117;28;21000;-75
2023/03/18 05:35:39;;;;;;;49.37;35.20;;;9.60;99.90;;;;;;5003653;28;20432;-75
2023/03/18 05:38:06;;;;;;;44.67;35.30;;;9.60;99.90;;;;;;5005195;28;20432;-76
2023/03/18 05:40:32;;;;;;;44.47;33.53;;;9.60;99.90;;;;;;5001519;28;20433;-75
2023/03/18 05:42:58;;;;;;;46.60;35.10;;;9.70;99.90;;;;;;5001700;28;20456;-75
2023/03/18 05:45:23;;;;;;;44.72;35.10;;;9.60;99.90;;;;;;5000712;28;20448;-74
2023/03/18 05:47:49;;;;;;;43.17;34.70;;;9.70;99.90;;;;;;4999077;28;20984;-76
2023/03/18 05:50:36;;;;;;;48.97;37.20;;;9.60;99.90;;;;;;4976470;28;20471;-74
2023/03/18 05:53:04;;;;;;;42.97;35.65;;;9.70;99.90;;;;;;5005676;28;20428;-75
2023/03/18 05:55:30;;;;;;;43.13;33.30;;;9.60;99.90;;;;;;5005395;28;20500;-74
2023/03/18 05:57:57;;;;;;;41.88;35.05;;;9.70;99.90;;;;;;5003699;28;20481;-77
2023/03/18 06:00:24;;;;;;;44.08;35.40;;;9.70;99.90;;;;;;4997003;28;20419;-75
2023/03/18 06:02:51;;;;;;;43.70;35.40;;;9.60;99.90;;;;;;5007496;28;20421;-76
2023/03/18 06:05:17;;;;;;;41.35;34.63;;;9.60;99.90;;;;;;5003831;28;20427;-73
2023/03/18 06:07:44;;;;;;;41.90;34.03;;;9.60;99.90;;;;;;4996941;28;20523;-76
2023/03/18 06:10:11;;;;;;;45.72;35.45;;;9.60;99.90;;;;;;5004460;28;20465;-76
2023/03/18 06:12:37;;;;;;;41.08;34.30;;;9.60;99.90;;;;;;5010184;28;20621;-74
2023/03/18 06:15:07;;;;;;;37.67;33.27;;;9.60;99.90;;;;;;5006637;28;20448;-74
2023/03/18 06:17:33;;;;;;;40.63;33.97;;;9.60;99.90;;;;;;5009654;28;20432;-76
2023/03/18 06:19:59;;;;;;;39.83;32.42;;;9.70;99.90;;;;;;5005037;28;20433;-75
2023/03/18 06:22:25;;;;;;;39.05;33.05;;;9.60;99.90;;;;;;5008999;28;20425;-75
2023/03/18 06:24:52;;;;;;;35.63;31.77;;;9.60;99.90;;;;;;5005260;28;20424;-76
2023/03/18 06:27:18;;;;;;;42.47;32.33;;;9.60;99.90;;;;;;5008503;28;20512;-78
2023/03/18 06:29:44;;;;;;;35.90;31.40;;;9.60;99.90;;;;;;5008730;28;20892;-75
2023/03/18 06:32:10;;;;;;;38.43;32.50;;;9.70;99.90;;;;;;5006965;28;20447;-75
2023/03/18 06:34:35;;;;;;;40.55;32.53;;;9.60;99.90;;;;;;4988336;28;20487;-75
2023/03/18 06:37:02;;;;;;;40.95;34.22;;;9.70;99.90;;;;;;4996008;28;20424;-75
2023/03/18 06:39:28;;;;;;;44.30;35.03;;;9.70;99.90;;;;;;5004662;28;20424;-77
2023/03/18 06:41:54;;;;;;;43.60;33.42;;;9.80;99.90;;;;;;5004306;28;20437;-74
2023/03/18 06:44:23;;;;;;;37.47;32.65;;;9.80;99.90;;;;;;4993728;28;20789;-75
2023/03/18 06:46:49;;;;;;;37.70;32.53;;;9.90;99.90;;;;;;5001378;28;20421;-76
2023/03/18 06:49:15;;;;;;;39.37;33.40;;;9.90;99.90;;;;;;5001073;28;20435;-76
2023/03/18 06:51:42;;;;;;;39.67;32.13;;;9.90;99.90;;;;;;5004055;28;20431;-75
2023/03/18 06:54:08;;;;;;;37.42;32.30;;;10.00;99.90;;;;;;4985439;28;20476;-75
2023/03/18 06:56:37;;;;;;;42.13;33.17;;;10.10;99.90;;;;;;5006307;28;20812;-79
2023/03/18 06:59:04;;;;;;;36.50;31.02;;;10.00;99.90;;;;;;4999226;28;21050;-76
2023/03/18 07:01:31;;;;;;;38.03;32.75;;;10.00;99.90;;;;;;5000374;28;20426;-76
2023/03/18 07:03:59;;;;;;;34.90;31.20;;;10.20;99.90;;;;;;4999490;28;20435;-78
2023/03/18 07:06:25;;;;;;;36.67;32.28;;;10.30;99.90;;;;;;4984069;28;20436;-76
2023/03/18 07:08:51;;;;;;;37.85;32.22;;;10.30;99.90;;;;;;5004098;28;20859;-74
2023/03/18 07:11:17;;;;;;;42.95;33.55;;;10.40;99.90;;;;;;5003151;28;20420;-76
2023/03/18 07:13:43;;;;;;;38.75;33.17;;;10.40;99.90;;;;;;5002278;28;20511;-75
2023/03/18 07:16:09;;;;;;;37.55;32.90;;;10.30;99.90;;;;;;4999089;28;20438;-76
2023/03/18 07:18:36;;;;;;;36.33;31.48;;;10.40;99.90;;;;;;4988100;28;20437;-74
2023/03/18 07:21:03;;;;;;;38.47;31.10;;;10.40;99.90;;;;;;4999229;28;20513;-76
2023/03/18 07:23:28;;;;;;;32.90;29.45;;;10.50;99.90;;;;;;4994053;28;20536;-76
2023/03/18 07:25:54;;;;;;;39.95;33.55;;;10.50;99.90;;;;;;4982567;28;20468;-75
2023/03/18 07:28:20;;;;;;;35.55;30.70;;;10.50;99.90;;;;;;4996047;28;20466;-76
2023/03/18 07:30:46;;;;;;;38.85;32.85;;;10.70;99.90;;;;;;5004391;28;20973;-76
2023/03/18 07:33:12;;;;;;;34.43;30.63;;;10.70;99.90;;;;;;5007003;28;20429;-77
2023/03/18 07:35:40;;;;;;;35.17;31.20;;;10.90;99.90;;;;;;5005100;28;20443;-78
2023/03/18 07:38:10;;;;;;;36.90;30.80;;;10.90;99.90;;;;;;5000139;28;20573;-77
2023/03/18 07:40:36;;;;;;;34.20;29.83;;;10.90;99.90;;;;;;4996571;28;20505;-76
2023/03/18 07:43:03;;;;;;;33.83;30.15;;;10.80;99.90;;;;;;4995490;28;20426;-76
2023/03/18 07:45:29;;;;;;;33.22;29.40;;;10.80;99.90;;;;;;5003956;28;20507;-76
2023/03/18 07:47:55;;;;;;;31.85;28.42;;;10.90;99.90;;;;;;5007619;28;20444;-75
2023/03/18 07:50:20;;;;;;;34.00;29.08;;;11.00;99.90;;;;;;5006375;28;20429;-76
2023/03/18 07:52:47;;;;;;;31.00;27.50;;;11.10;99.90;;;;;;4998820;28;20725;-76
2023/03/18 07:55:13;;;;;;;29.50;26.33;;;11.10;99.90;;;;;;4988360;28;20436;-76
2023/03/18 07:57:39;;;;;;;31.55;27.23;;;11.10;99.90;;;;;;4996752;28;20453;-77
2023/03/18 08:00:07;;;;;;;30.63;26.48;;;11.20;99.90;;;;;;5000444;28;20469;-76
2023/03/18 08:02:34;;;;;;;29.30;26.15;;;11.30;99.90;;;;;;5000007;28;20978;-77
2023/03/18 08:05:01;;;;;;;32.47;28.23;;;11.30;99.90;;;;;;5007864;28;20492;-77
2023/03/18 08:07:27;;;;;;;34.38;28.20;;;11.30;99.90;;;;;;5006417;28;20445;-77
2023/03/18 08:09:52;;;;;;;32.67;28.77;;;11.30;99.90;;;;;;5004799;28;20582;-76
2023/03/18 08:12:18;;;;;;;30.60;27.40;;;11.30;99.90;;;;;;5004976;28;20432;-75
2023/03/18 08:14:44;;;;;;;30.33;27.13;;;11.20;99.90;;;;;;5004260;28;20428;-76
2023/03/18 08:17:10;;;;;;;30.13;26.93;;;11.20;99.90;;;;;;5007303;28;20908;-75
2023/03/18 08:19:35;;;;;;;30.27;26.47;;;11.20;99.90;;;;;;5007328;28;20425;-76
2023/03/18 08:22:01;;;;;;;29.58;26.33;;;11.10;99.90;;;;;;5008171;28;20795;-75
2023/03/18 08:24:27;;;;;;;28.87;25.90;;;11.10;99.90;;;;;;5006615;28;20425;-74
2023/03/18 08:26:52;;;;;;;31.75;27.40;;;11.10;99.90;;;;;;5006070;28;20933;-75
2023/03/18 08:29:18;;;;;;;31.30;27.13;;;11.20;99.90;;;;;;5007566;28;20452;-77
2023/03/18 08:31:44;;;;;;;32.20;27.50;;;11.10;99.90;;;;;;5003111;28;20460;-77
2023/03/18 08:34:10;;;;;;;30.02;26.52;;;11.20;99.90;;;;;;5001799;28;20439;-76
2023/03/18 08:36:35;;;;;;;32.80;27.30;;;11.10;99.90;;;;;;5007414;28;20505;-76
2023/03/18 08:39:04;;;;;;;31.45;28.17;;;11.10;99.90;;;;;;4988765;28;20467;-76
2023/03/18 08:41:30;;;;;;;31.90;28.50;;;11.10;99.90;;;;;;5002599;28;20439;-76
2023/03/18 08:43:56;;;;;;;31.92;28.10;;;11.10;99.90;;;;;;5004144;28;20508;-76
2023/03/18 08:46:22;;;;;;;34.72;30.85;;;11.10;99.90;;;;;;5003061;28;21027;-77
2023/03/18 08:48:48;;;;;;;31.20;27.23;;;11.20;99.90;;;;;;4991460;28;21174;-76
2023/03/18 08:51:15;;;;;;;32.60;29.07;;;11.30;99.90;;;;;;4993291;28;20426;-75
2023/03/18 08:53:41;;;;;;;33.28;29.27;;;11.30;99.90;;;;;;5000639;28;20432;-76
2023/03/18 08:56:07;;;;;;;31.40;28.02;;;11.40;99.90;;;;;;5002424;28;20421;-73
2023/03/18 08:58:34;;;;;;;34.40;28.77;;;11.40;99.90;;;;;;5002835;28;20786;-75
2023/03/18 09:01:02;;;;;;;32.22;28.33;;;11.50;99.90;;;;;;4996490;28;20450;-77
2023/03/18 09:03:27;;;;;;;31.67;28.38;;;11.50;99.90;;;;;;5004392;28;20495;-75
2023/03/18 09:05:54;;;;;;;33.37;28.60;;;11.60;99.90;;;;;;5005029;28;20524;-75
2023/03/18 09:08:20;;;;;;;30.50;27.42;;;11.80;99.90;;;;;;5002586;28;20477;-74
2023/03/18 09:10:47;;;;;;;32.53;29.20;;;11.70;99.90;;;;;;5001833;28;20460;-76
2023/03/18 09:13:14;;;;;;;31.98;28.80;;;11.80;99.90;;;;;;5005818;28;21000;-74
2023/03/18 09:15:40;;;;;;;31.07;27.77;;;12.00;99.90;;;;;;5008608;28;20812;-75
2023/03/18 09:18:07;;;;;;;30.33;27.10;;;12.10;99.90;;;;;;5007446;28;20436;-75
2023/03/18 09:20:33;;;;;;;30.80;27.65;;;12.00;99.90;;;;;;5008235;28;20435;-75
2023/03/18 09:22:59;;;;;;;30.00;26.92;;;12.20;99.90;;;;;;5008458;28;20477;-77
2023/03/18 09:25:25;;;;;;;31.17;27.00;;;12.40;99.90;;;;;;5006796;28;20428;-77
2023/03/18 09:27:52;;;;;;;30.98;27.73;;;12.70;99.90;;;;;;4996939;28;20489;-77
2023/03/18 09:30:18;;;;;;;31.17;27.92;;;12.80;99.90;;;;;;4997800;28;20787;-75
2023/03/18 09:32:45;;;;;;;31.40;28.17;;;12.90;99.90;;;;;;5006392;28;20791;-76
2023/03/18 09:35:11;;;;;;;29.48;26.65;;;13.20;99.90;;;;;;5005764;28;20496;-73
2023/03/18 09:37:37;;;;;;;30.50;25.57;;;13.30;99.90;;;;;;4993031;28;20429;-75
2023/03/18 09:40:06;;;;;;;32.03;27.35;;;13.60;99.90;;;;;;4995809;28;20439;-74
2023/03/18 09:43:13;;;;;;;29.13;26.17;;;13.60;99.90;;;;;;5006179;28;20428;-73
2023/03/18 09:46:19;;;;;;;31.52;28.27;;;13.50;99.90;;;;;;5001500;28;20460;-76
2023/03/18 09:49:08;;;;;;;29.88;26.77;;;13.60;99.90;;;;;;5008374;28;20425;-74
2023/03/18 09:51:45;;;;;;;33.42;30.17;;;13.70;99.90;;;;;;4984036;28;21450;-73
2023/03/18 09:54:13;;;;;;;31.65;28.35;;;13.90;99.90;;;;;;4986769;28;20767;-76
2023/03/18 09:56:39;;;;;;;33.95;29.80;;;13.50;99.90;;;;;;4996744;28;20432;-75
2023/03/18 09:59:18;;;;;;;31.98;28.63;;;13.50;99.90;;;;;;5002047;28;20421;-74
2023/03/18 10:01:47;;;;;;;32.50;28.83;;;13.60;99.90;;;;;;5003997;28;20479;-74
2023/03/18 10:04:20;;;;;;;31.55;28.35;;;13.80;99.90;;;;;;5006199;28;20719;-74
2023/03/18 10:06:49;;;;;;;29.27;26.45;;;13.70;99.90;;;;;;5006431;28;20436;-76
2023/03/18 10:09:27;;;;;;;28.45;25.52;;;13.80;99.90;;;;;;5005897;28;20424;-75
2023/03/18 10:12:11;;;;;;;31.70;28.35;;;13.80;99.90;;;;;;5002364;28;20420;-75
2023/03/18 10:14:51;;;;;;;30.60;27.55;;;13.50;99.90;;;;;;4991956;28;20428;-74
2023/03/18 10:17:27;;;;;;;28.52;25.73;;;13.40;99.90;;;;;;5004770;28;20447;-74
2023/03/18 10:20:03;;;;;;;28.35;25.63;;;13.30;99.90;;;;;;5005191;28;20432;-75
2023/03/18 10:23:00;;;;;;;27.92;25.13;;;13.30;99.90;;;;;;5005824;28;20459;-75
2023/03/18 10:25:50;;;;;;;28.60;25.88;;;13.30;99.90;;;;;;4987096;28;20439;-76
2023/03/18 10:28:37;;;;;;;27.98;25.17;;;13.40;99.90;;;;;;4997225;28;20440;-75
2023/03/18 10:31:30;;;;;;;27.08;24.00;;;13.70;99.90;;;;;;5003750;28;20958;-77
2023/03/18 10:34:10;;;;;;;24.48;21.73;;;13.90;99.90;;;;;;4988150;28;20425;-77
2023/03/18 10:36:49;;;;;;;21.20;18.83;;;14.00;99.90;;;;;;5002282;28;20428;-76
2023/03/18 10:39:19;;;;;;;20.70;18.60;;;14.30;99.90;;;;;;5000730;28;20506;-78
2023/03/18 10:41:50;;;;;;;19.83;17.73;;;14.30;99.90;;;;;;4993520;28;20548;-75
2023/03/18 10:44:29;;;;;;;18.55;16.58;;;14.60;99.90;;;;;;4980771;28;20432;-75
2023/03/18 10:47:02;;;;;;;17.15;14.95;;;14.60;99.90;;;;;;4999623;28;20950;-74
2023/03/18 10:49:33;;;;;;;18.02;16.02;;;14.70;99.90;;;;;;4999620;28;20441;-74
2023/03/18 10:52:04;;;;;;;15.18;13.65;;;14.90;99.90;;;;;;5004759;28;20430;-74
2023/03/18 10:54:37;;;;;;;17.75;13.25;;;15.00;99.90;;;;;;5007345;28;20452;-74
2023/03/18 10:57:03;;;;;;;15.48;13.73;;;14.80;99.90;;;;;;5006078;28;20440;-74
2023/03/18 10:59:29;;;;;;;16.52;13.38;;;15.00;99.90;;;;;;5004601;28;20436;-76
2023/03/18 11:02:03;;;;;;;14.82;12.48;;;14.70;99.90;;;;;;5005842;28;20452;-76
2023/03/18 11:04:43;;;;;;;11.68;10.45;;;14.70;99.90;;;;;;4999179;28;20461;-76
2023/03/18 11:07:17;;;;;;;12.65;10.43;;;14.80;99.90;;;;;;5004427;28;20479;-75
2023/03/18 11:09:43;;;;;;;11.27;8.82;;;14.90;99.90;;;;;;4991411;28;20422;-75
2023/03/18 11:12:38;;;;;;;12.95;8.10;;;14.60;99.90;;;;;;5001651;28;20760;-76
2023/03/18 11:15:10;;;;;;;10.43;8.35;;;14.40;99.90;;;;;;4979820;28;20430;-75
2023/03/18 11:17:38;;;;;;;10.32;6.70;;;14.60;99.90;;;;;;4989843;28;20448;-75
2023/03/18 11:20:23;;;;;;;10.73;7.47;;;14.60;99.90;;;;;;4995008;28;20438;-74
2023/03/18 11:22:51;;;;;;;12.20;8.15;;;14.60;99.90;;;;;;5006158;28;20431;-77
2023/03/18 11:25:22;;;;;;;11.55;8.85;;;14.60;99.90;;;;;;5004849;28;20487;-75
2023/03/18 11:27:56;;;;;;;9.68;7.88;;;14.80;99.90;;;;;;5023694;28;20426;-76
2023/03/18 11:30:28;;;;;;;10.60;9.30;;;15.10;99.90;;;;;;4999890;28;20433;-75
2023/03/18 11:32:57;;;;;;;10.68;8.80;;;15.40;99.90;;;;;;5013559;28;20960;-75
2023/03/18 11:35:42;;;;;;;9.80;8.68;;;15.10;99.90;;;;;;5007729;28;20994;-76
2023/03/18 11:38:19;;;;;;;11.48;7.88;;;14.80;99.90;;;;;;5028910;28;20419;-76
2023/03/18 11:40:45;;;;;;;9.65;8.43;;;14.90;99.90;;;;;;5019406;28;20421;-76
2023/03/18 11:43:21;;;;;;;14.20;8.82;;;14.90;99.90;;;;;;5020987;28;20486;-75
2023/03/18 11:45:57;;;;;;;9.48;7.78;;;14.90;99.90;;;;;;5012941;28;20825;-76
2023/03/18 11:48:23;;;;;;;12.95;9.15;;;15.00;99.90;;;;;;4992236;28;20446;-79
2023/03/18 11:51:07;;;;;;;11.13;9.23;;;15.30;99.90;;;;;;4992088;28;20755;-78
2023/03/18 11:53:52;;;;;;;11.35;9.90;;;15.60;99.90;;;;;;5000899;28;20430;-78
2023/03/18 11:56:21;;;;;;;12.32;10.35;;;15.90;99.90;;;;;;4998386;28;20485;-78
2023/03/18 11:59:05;;;;;;;11.73;9.77;;;16.10;99.90;;;;;;5017887;28;20423;-78
2023/03/18 12:02:24;;;;;;;12.97;10.00;;;15.80;99.90;;;;;;4995456;28;20436;-79
2023/03/18 12:05:20;;;;;;;11.13;10.02;;;15.60;99.90;;;;;;4988801;28;20528;-76
2023/03/18 12:07:46;;;;;;;11.98;10.63;;;15.70;99.90;;;;;;5005111;28;20483;-74
2023/03/18 12:10:14;;;;;;;12.30;10.07;;;16.20;99.90;;;;;;5012661;28;20460;-74
2023/03/18 12:12:46;;;;;;;12.10;9.70;;;16.40;99.90;;;;;;5002998;28;20442;-76
2023/03/18 12:15:56;;;;;;;11.38;10.07;;;16.50;99.90;;;;;;5013518;28;20451;-74
2023/03/18 12:18:40;;;;;;;11.10;9.93;;;16.70;99.90;;;;;;4995730;28;20439;-76
2023/03/18 12:21:24;;;;;;;10.30;9.20;;;16.60;99.90;;;;;;5003206;28;20420;-74
2023/03/18 12:24:27;;;;;;;13.52;9.40;;;16.40;99.90;;;;;;4997421;28;20430;-80
2023/03/18 12:27:05;;;;;;;10.95;9.32;;;16.00;99.90;;;;;;5024514;28;20432;-73
2023/03/18 12:29:39;;;;;;;11.05;9.93;;;16.10;99.90;;;;;;4996687;28;20481;-73
2023/03/18 12:32:08;;;;;;;10.70;9.50;;;16.00;99.90;;;;;;5008020;28;20431;-73
2023/03/18 12:34:49;;;;;;;10.32;8.50;;;16.30;99.90;;;;;;5007787;28;20425;-73
2023/03/18 12:37:23;;;;;;;7.70;6.25;;;16.20;99.90;;;;;;4994644;28;20428;-73
2023/03/18 12:40:11;;;;;;;6.10;5.47;;;16.10;99.90;;;;;;5003279;28;20425;-74
2023/03/18 12:42:43;;;;;;;8.47;6.80;;;16.10;99.90;;;;;;5006406;28;20471;-75